Metsäpalo : 18-06-2018 11:00 asti: 19-06-2018 10:14 Varoitus: Metsäpalo Taso: Keltainen info button
suomi:
Metsäpalovaroitus on voimassa.

Lähimmät METAR asemat

 

EFPO - Pori (mil/Civ), Finland
Distance from station: PLU 42km
Päivitetty: 18/06/2018 12:20
Enimmäkseen pilvistä
Enimmäkseen pilvistä
 Wind from LO
Tuuli: LO 26 km/h, Puuskatuuli: 44 km/h
Lämpötila: 16°C
Kastepiste: 9°C
Kosteus: 63%
Ilmanpaine: 1010 hPa
Clouds: Enimmäkseen pilvistä
Visibility: 10 km
Cloud details: Enimmäkseen pilvistä 640 m
2018/06/18 09:20 EFPO 180920Z AUTO 22014G24KT 190V250 9999 BKN021/// 16/09 Q1010
EFTU - Turku/Abo, Finland
Distance from station: E 68km
Päivitetty: 18/06/2018 12:20
Selkeätä
Selkeätä
 Wind from LO
Tuuli: LO 30 km/h
Lämpötila: 18°C
Kastepiste: 6°C
Kosteus: 46%
Ilmanpaine: 1011 hPa
Yhteenveto: Selkeätä
Visibility: greater than 10 km
2018/06/18 09:20 EFTU 180920Z AUTO 22016KT CAVOK 18/06 Q1011
 
EFTP - Tampere/Pirkkala, Finland
Distance from station: IKO 84km
Päivitetty: 18/06/2018 12:20
Selkeätä
Selkeätä
 Wind from ELO
Tuuli: ELO 24 km/h
Lämpötila: 20°C
Kastepiste: 7°C
Kosteus: 43%
Ilmanpaine: 1010 hPa
Yhteenveto: Selkeätä
Visibility: greater than 10 km
2018/06/18 09:20 EFTP 180920Z 21013KT CAVOK 20/07 Q1010